sensor_id;sensor_type;location;lat;lon;timestamp;pressure;altitude;pressure_sealevel;temperature;humidity
68226;BME280;55045;49.410;11.030;2022-08-11T00:00:17;98542.44;;;16.55;87.55
68226;BME280;55045;49.410;11.030;2022-08-11T00:03:20;98534.91;;;16.50;87.30
68226;BME280;55045;49.410;11.030;2022-08-11T00:06:47;98539.06;;;16.40;87.98
68226;BME280;55045;49.410;11.030;2022-08-11T00:09:52;98533.34;;;16.48;87.69
68226;BME280;55045;49.410;11.030;2022-08-11T00:12:58;98539.91;;;16.40;88.95
68226;BME280;55045;49.410;11.030;2022-08-11T00:16:02;98520.56;;;16.16;89.74
68226;BME280;55045;49.410;11.030;2022-08-11T00:19:07;98537.94;;;16.17;90.91
68226;BME280;55045;49.410;11.030;2022-08-11T00:22:19;98540.34;;;16.20;90.70
68226;BME280;55045;49.410;11.030;2022-08-11T00:25:23;98537.59;;;16.09;90.38
68226;BME280;55045;49.410;11.030;2022-08-11T00:28:29;98544.84;;;16.18;93.16
68226;BME280;55045;49.410;11.030;2022-08-11T00:31:34;98540.75;;;16.41;93.87
68226;BME280;55045;49.410;11.030;2022-08-11T00:34:39;98543.56;;;16.11;94.63
68226;BME280;55045;49.410;11.030;2022-08-11T00:37:49;98484.56;;;15.66;94.06
68226;BME280;55045;49.410;11.030;2022-08-11T00:41:03;98537.66;;;15.95;94.52
68226;BME280;55045;49.410;11.030;2022-08-11T00:44:26;98549.56;;;15.99;97.03
68226;BME280;55045;49.410;11.030;2022-08-11T00:47:43;98536.34;;;15.88;95.49
68226;BME280;55045;49.410;11.030;2022-08-11T00:51:00;98544.72;;;15.93;97.39
68226;BME280;55045;49.410;11.030;2022-08-11T00:54:25;98543.63;;;15.82;98.55
68226;BME280;55045;49.410;11.030;2022-08-11T01:01:08;98535.91;;;15.67;100.00
68226;BME280;55045;49.410;11.030;2022-08-11T01:04:38;98534.41;;;15.77;100.00
68226;BME280;55045;49.410;11.030;2022-08-11T01:11:58;98520.84;;;15.42;100.00
68226;BME280;55045;49.410;11.030;2022-08-11T01:15:36;98536.28;;;15.46;100.00
68226;BME280;55045;49.410;11.030;2022-08-11T01:26:52;98539.81;;;15.17;100.00
68226;BME280;55045;49.410;11.030;2022-08-11T01:30:16;98537.03;;;15.34;100.00
68226;BME280;55045;49.410;11.030;2022-08-11T01:41:21;98540.38;;;15.36;100.00
68226;BME280;55045;49.410;11.030;2022-08-11T01:45:11;98539.63;;;15.63;100.00
68226;BME280;55045;49.410;11.030;2022-08-11T01:48:30;98541.69;;;15.72;100.00
68226;BME280;55045;49.410;11.030;2022-08-11T01:51:48;98538.41;;;15.54;100.00
68226;BME280;55045;49.410;11.030;2022-08-11T01:55:13;98547.94;;;15.55;100.00
68226;BME280;55045;49.410;11.030;2022-08-11T01:58:24;98524.13;;;15.17;100.00
68226;BME280;55045;49.410;11.030;2022-08-11T02:01:53;98551.50;;;15.25;100.00
68226;BME280;55045;49.410;11.030;2022-08-11T02:05:06;98535.72;;;15.27;100.00
68226;BME280;55045;49.410;11.030;2022-08-11T02:08:22;98546.34;;;15.24;100.00
68226;BME280;55045;49.410;11.030;2022-08-11T02:11:36;98541.69;;;15.15;100.00
68226;BME280;55045;49.410;11.030;2022-08-11T02:14:47;98537.28;;;15.15;100.00
68226;BME280;55045;49.410;11.030;2022-08-11T02:18:12;98541.22;;;15.37;100.00
68226;BME280;55045;49.410;11.030;2022-08-11T02:21:23;98543.72;;;15.10;100.00
68226;BME280;55045;49.410;11.030;2022-08-11T02:24:52;98534.13;;;15.24;100.00
68226;BME280;55045;49.410;11.030;2022-08-11T02:28:06;98530.66;;;15.10;100.00
68226;BME280;55045;49.410;11.030;2022-08-11T02:31:17;98538.94;;;14.88;100.00
68226;BME280;55045;49.410;11.030;2022-08-11T02:35:04;98534.00;;;14.97;100.00
68226;BME280;55045;49.410;11.030;2022-08-11T02:38:17;98529.22;;;14.76;100.00
68226;BME280;55045;49.410;11.030;2022-08-11T02:41:36;98531.22;;;14.70;100.00
68226;BME280;55045;49.410;11.030;2022-08-11T02:45:12;98533.28;;;14.65;100.00
68226;BME280;55045;49.410;11.030;2022-08-11T02:48:29;98522.22;;;14.46;100.00
68226;BME280;55045;49.410;11.030;2022-08-11T02:52:02;98530.56;;;14.53;100.00
68226;BME280;55045;49.410;11.030;2022-08-11T02:55:24;98537.53;;;14.52;100.00
68226;BME280;55045;49.410;11.030;2022-08-11T02:58:55;98532.88;;;14.57;100.00
68226;BME280;55045;49.410;11.030;2022-08-11T03:02:30;98530.91;;;14.61;100.00
68226;BME280;55045;49.410;11.030;2022-08-11T03:05:53;98519.34;;;14.51;100.00
68226;BME280;55045;49.410;11.030;2022-08-11T03:09:05;98533.34;;;14.34;100.00
68226;BME280;55045;49.410;11.030;2022-08-11T03:12:14;98536.69;;;14.52;100.00
68226;BME280;55045;49.410;11.030;2022-08-11T03:16:08;98528.03;;;14.20;100.00
68226;BME280;55045;49.410;11.030;2022-08-11T03:19:44;98538.22;;;14.24;100.00
68226;BME280;55045;49.410;11.030;2022-08-11T03:22:56;98473.59;;;13.83;100.00
68226;BME280;55045;49.410;11.030;2022-08-11T03:26:08;98529.47;;;14.09;100.00
68226;BME280;55045;49.410;11.030;2022-08-11T03:29:20;98536.97;;;14.16;100.00
68226;BME280;55045;49.410;11.030;2022-08-11T03:34:37;98527.66;;;14.11;100.00
68226;BME280;55045;49.410;11.030;2022-08-11T03:37:47;98528.66;;;13.93;100.00
68226;BME280;55045;49.410;11.030;2022-08-11T03:41:08;98536.72;;;14.04;100.00
68226;BME280;55045;49.410;11.030;2022-08-11T03:45:00;98546.16;;;13.91;100.00
68226;BME280;55045;49.410;11.030;2022-08-11T03:48:13;98541.34;;;13.99;100.00
68226;BME280;55045;49.410;11.030;2022-08-11T03:51:28;98542.38;;;13.81;100.00
68226;BME280;55045;49.410;11.030;2022-08-11T03:54:59;98548.19;;;13.70;100.00
68226;BME280;55045;49.410;11.030;2022-08-11T03:58:34;98529.84;;;13.88;100.00
68226;BME280;55045;49.410;11.030;2022-08-11T04:06:01;98536.75;;;13.73;100.00
68226;BME280;55045;49.410;11.030;2022-08-11T04:09:43;98532.94;;;13.94;100.00
68226;BME280;55045;49.410;11.030;2022-08-11T04:13:12;98535.06;;;13.72;100.00
68226;BME280;55045;49.410;11.030;2022-08-11T04:16:40;98535.72;;;13.75;100.00
68226;BME280;55045;49.410;11.030;2022-08-11T04:19:53;98537.91;;;13.83;100.00
68226;BME280;55045;49.410;11.030;2022-08-11T04:23:30;98524.03;;;13.67;100.00
68226;BME280;55045;49.410;11.030;2022-08-11T04:31:09;98541.19;;;13.71;100.00
68226;BME280;55045;49.410;11.030;2022-08-11T04:34:57;98541.09;;;13.88;100.00
68226;BME280;55045;49.410;11.030;2022-08-11T04:38:33;98543.31;;;14.11;100.00
68226;BME280;55045;49.410;11.030;2022-08-11T04:42:05;98536.91;;;13.86;100.00
68226;BME280;55045;49.410;11.030;2022-08-11T04:45:48;98544.63;;;14.19;100.00
68226;BME280;55045;49.410;11.030;2022-08-11T04:49:32;98547.47;;;14.30;100.00
68226;BME280;55045;49.410;11.030;2022-08-11T04:53:28;98552.50;;;14.64;100.00
68226;BME280;55045;49.410;11.030;2022-08-11T04:57:01;98560.22;;;14.66;100.00
68226;BME280;55045;49.410;11.030;2022-08-11T05:00:29;98547.69;;;14.87;100.00
68226;BME280;55045;49.410;11.030;2022-08-11T05:04:10;98564.47;;;14.83;100.00
68226;BME280;55045;49.410;11.030;2022-08-11T05:15:01;98570.41;;;15.15;100.00
68226;BME280;55045;49.410;11.030;2022-08-11T05:18:23;98574.16;;;15.25;100.00
68226;BME280;55045;49.410;11.030;2022-08-11T05:21:52;98572.00;;;15.32;100.00
68226;BME280;55045;49.410;11.030;2022-08-11T05:25:17;98562.00;;;15.52;100.00
68226;BME280;55045;49.410;11.030;2022-08-11T05:29:24;98570.66;;;16.10;100.00
68226;BME280;55045;49.410;11.030;2022-08-11T05:32:55;98564.13;;;16.84;98.18
68226;BME280;55045;49.410;11.030;2022-08-11T05:36:24;98564.56;;;16.51;100.00
68226;BME280;55045;49.410;11.030;2022-08-11T05:39:37;98563.97;;;16.99;96.85
68226;BME280;55045;49.410;11.030;2022-08-11T05:43:02;98569.63;;;17.44;90.89
68226;BME280;55045;49.410;11.030;2022-08-11T05:46:28;98569.19;;;17.76;87.58
68226;BME280;55045;49.410;11.030;2022-08-11T05:49:50;98569.63;;;17.82;86.41
68226;BME280;55045;49.410;11.030;2022-08-11T05:53:16;98568.88;;;18.17;83.49
68226;BME280;55045;49.410;11.030;2022-08-11T05:56:49;98571.31;;;18.44;82.80
68226;BME280;55045;49.410;11.030;2022-08-11T05:59:58;98577.28;;;19.05;76.84
68226;BME280;55045;49.410;11.030;2022-08-11T06:03:07;98578.78;;;19.32;72.51
68226;BME280;55045;49.410;11.030;2022-08-11T06:06:12;98572.13;;;19.61;72.99
68226;BME280;55045;49.410;11.030;2022-08-11T06:09:20;98581.22;;;19.68;69.97
68226;BME280;55045;49.410;11.030;2022-08-11T06:12:28;98575.88;;;20.35;65.57
68226;BME280;55045;49.410;11.030;2022-08-11T06:15:43;98579.91;;;20.83;62.69
68226;BME280;55045;49.410;11.030;2022-08-11T06:18:47;98576.94;;;21.60;57.55
68226;BME280;55045;49.410;11.030;2022-08-11T06:21:51;98564.72;;;21.99;54.10
68226;BME280;55045;49.410;11.030;2022-08-11T06:24:57;98553.97;;;22.31;52.19
68226;BME280;55045;49.410;11.030;2022-08-11T06:28:02;98574.03;;;22.53;51.51
68226;BME280;55045;49.410;11.030;2022-08-11T06:31:13;98571.22;;;22.45;51.52
68226;BME280;55045;49.410;11.030;2022-08-11T06:34:27;98574.56;;;22.66;51.51
68226;BME280;55045;49.410;11.030;2022-08-11T06:37:43;98561.22;;;22.29;53.98
68226;BME280;55045;49.410;11.030;2022-08-11T06:40:52;98569.56;;;22.73;49.87
68226;BME280;55045;49.410;11.030;2022-08-11T06:44:23;98572.09;;;22.84;49.18
68226;BME280;55045;49.410;11.030;2022-08-11T06:47:31;98564.44;;;23.10;48.60
68226;BME280;55045;49.410;11.030;2022-08-11T06:50:35;98557.91;;;22.85;48.76
68226;BME280;55045;49.410;11.030;2022-08-11T06:53:57;98540.91;;;22.97;48.18
68226;BME280;55045;49.410;11.030;2022-08-11T06:57:10;98568.47;;;23.04;48.14
68226;BME280;55045;49.410;11.030;2022-08-11T07:00:33;98563.06;;;23.90;45.66
68226;BME280;55045;49.410;11.030;2022-08-11T07:03:42;98558.59;;;24.18;44.91
68226;BME280;55045;49.410;11.030;2022-08-11T07:06:55;98566.75;;;24.34;44.17
68226;BME280;55045;49.410;11.030;2022-08-11T07:10:32;98566.25;;;23.93;45.13
68226;BME280;55045;49.410;11.030;2022-08-11T07:14:01;98562.75;;;24.65;42.80
68226;BME280;55045;49.410;11.030;2022-08-11T07:17:24;98561.91;;;24.47;42.93
68226;BME280;55045;49.410;11.030;2022-08-11T07:20:29;98556.66;;;24.91;42.44
68226;BME280;55045;49.410;11.030;2022-08-11T07:23:53;98558.59;;;25.24;41.71
68226;BME280;55045;49.410;11.030;2022-08-11T07:27:17;98560.38;;;25.16;42.27
68226;BME280;55045;49.410;11.030;2022-08-11T07:30:48;98556.91;;;25.23;41.14
68226;BME280;55045;49.410;11.030;2022-08-11T07:34:01;98556.81;;;25.59;40.22
68226;BME280;55045;49.410;11.030;2022-08-11T07:37:17;98550.41;;;25.44;40.00
68226;BME280;55045;49.410;11.030;2022-08-11T07:40:21;98542.63;;;24.98;41.32
68226;BME280;55045;49.410;11.030;2022-08-11T07:43:25;98527.97;;;25.38;39.23
68226;BME280;55045;49.410;11.030;2022-08-11T07:46:31;98539.56;;;25.97;37.98
68226;BME280;55045;49.410;11.030;2022-08-11T07:49:53;98540.91;;;26.01;37.47
68226;BME280;55045;49.410;11.030;2022-08-11T07:53:15;98534.41;;;26.04;36.88
68226;BME280;55045;49.410;11.030;2022-08-11T07:56:20;98532.97;;;26.26;37.59
68226;BME280;55045;49.410;11.030;2022-08-11T07:59:39;98533.97;;;26.25;35.99
68226;BME280;55045;49.410;11.030;2022-08-11T08:03:12;98535.31;;;26.21;36.17
68226;BME280;55045;49.410;11.030;2022-08-11T08:06:35;98527.66;;;26.26;35.90
68226;BME280;55045;49.410;11.030;2022-08-11T08:09:59;98532.22;;;26.41;35.79
68226;BME280;55045;49.410;11.030;2022-08-11T08:13:20;98520.00;;;26.14;35.55
68226;BME280;55045;49.410;11.030;2022-08-11T08:16:41;98531.06;;;26.44;35.44
68226;BME280;55045;49.410;11.030;2022-08-11T08:20:04;98529.84;;;26.30;35.47
68226;BME280;55045;49.410;11.030;2022-08-11T08:23:09;98523.41;;;26.65;34.96
68226;BME280;55045;49.410;11.030;2022-08-11T08:26:15;98535.88;;;26.40;34.79
68226;BME280;55045;49.410;11.030;2022-08-11T08:29:36;98518.03;;;26.25;35.03
68226;BME280;55045;49.410;11.030;2022-08-11T08:32:58;98529.09;;;26.04;34.15
68226;BME280;55045;49.410;11.030;2022-08-11T08:36:03;98520.38;;;26.28;34.89
68226;BME280;55045;49.410;11.030;2022-08-11T08:39:14;98525.75;;;26.60;34.05
68226;BME280;55045;49.410;11.030;2022-08-11T08:42:25;98518.34;;;26.22;34.86
68226;BME280;55045;49.410;11.030;2022-08-11T08:45:33;98505.53;;;26.09;34.65
68226;BME280;55045;49.410;11.030;2022-08-11T08:48:40;98513.88;;;26.30;33.95
68226;BME280;55045;49.410;11.030;2022-08-11T08:51:48;98519.69;;;26.18;32.76
68226;BME280;55045;49.410;11.030;2022-08-11T08:55:17;98515.00;;;26.11;33.55
68226;BME280;55045;49.410;11.030;2022-08-11T08:58:22;98520.31;;;26.11;33.36
68226;BME280;55045;49.410;11.030;2022-08-11T09:01:28;98532.91;;;26.52;33.41
68226;BME280;55045;49.410;11.030;2022-08-11T09:04:33;98510.56;;;26.20;33.74
68226;BME280;55045;49.410;11.030;2022-08-11T09:07:37;98513.84;;;26.14;34.43
68226;BME280;55045;49.410;11.030;2022-08-11T09:10:44;98528.06;;;26.55;33.71
68226;BME280;55045;49.410;11.030;2022-08-11T09:13:51;98523.09;;;26.52;33.59
68226;BME280;55045;49.410;11.030;2022-08-11T09:17:07;98521.25;;;26.61;33.29
68226;BME280;55045;49.410;11.030;2022-08-11T09:20:16;98501.97;;;26.75;32.86
68226;BME280;55045;49.410;11.030;2022-08-11T09:23:20;98520.41;;;26.44;32.67
68226;BME280;55045;49.410;11.030;2022-08-11T09:27:05;98496.66;;;26.51;32.39
68226;BME280;55045;49.410;11.030;2022-08-11T09:30:10;98522.28;;;26.68;32.43
68226;BME280;55045;49.410;11.030;2022-08-11T09:34:36;98512.59;;;26.75;32.07
68226;BME280;55045;49.410;11.030;2022-08-11T09:37:40;98519.59;;;26.60;32.03
68226;BME280;55045;49.410;11.030;2022-08-11T09:41:03;98510.94;;;27.07;31.40
68226;BME280;55045;49.410;11.030;2022-08-11T09:44:08;98510.28;;;26.64;30.93
68226;BME280;55045;49.410;11.030;2022-08-11T09:47:29;98500.59;;;27.28;30.13
68226;BME280;55045;49.410;11.030;2022-08-11T09:50:35;98501.13;;;27.07;30.82
68226;BME280;55045;49.410;11.030;2022-08-11T09:53:41;98497.81;;;27.05;31.62
68226;BME280;55045;49.410;11.030;2022-08-11T09:57:04;98484.53;;;26.48;31.98
68226;BME280;55045;49.410;11.030;2022-08-11T10:00:30;98493.16;;;26.99;31.29
68226;BME280;55045;49.410;11.030;2022-08-11T10:03:37;98483.81;;;26.87;31.21
68226;BME280;55045;49.410;11.030;2022-08-11T10:06:47;98493.44;;;27.29;30.80
68226;BME280;55045;49.410;11.030;2022-08-11T10:10:08;98485.13;;;27.15;31.26
68226;BME280;55045;49.410;11.030;2022-08-11T10:13:15;98489.44;;;27.24;30.82
68226;BME280;55045;49.410;11.030;2022-08-11T10:16:40;98492.47;;;27.21;30.31
68226;BME280;55045;49.410;11.030;2022-08-11T10:19:46;98480.19;;;26.88;30.73
68226;BME280;55045;49.410;11.030;2022-08-11T10:23:09;98477.50;;;27.04;30.13
68226;BME280;55045;49.410;11.030;2022-08-11T10:27:18;98471.88;;;26.83;30.83
68226;BME280;55045;49.410;11.030;2022-08-11T10:30:24;98476.09;;;27.41;29.25
68226;BME280;55045;49.410;11.030;2022-08-11T10:33:46;98483.06;;;27.42;28.58
68226;BME280;55045;49.410;11.030;2022-08-11T10:37:03;98472.72;;;27.47;28.00
68226;BME280;55045;49.410;11.030;2022-08-11T10:40:19;98469.84;;;27.01;29.08
68226;BME280;55045;49.410;11.030;2022-08-11T10:43:24;98474.66;;;27.14;29.00
68226;BME280;55045;49.410;11.030;2022-08-11T10:46:46;98453.94;;;27.40;28.29
68226;BME280;55045;49.410;11.030;2022-08-11T10:50:09;98461.75;;;27.42;28.39
68226;BME280;55045;49.410;11.030;2022-08-11T10:53:33;98442.41;;;26.84;28.37
68226;BME280;55045;49.410;11.030;2022-08-11T10:56:56;98454.66;;;27.73;28.14
68226;BME280;55045;49.410;11.030;2022-08-11T11:00:17;98449.75;;;27.46;27.53
68226;BME280;55045;49.410;11.030;2022-08-11T11:03:21;98436.09;;;27.10;27.92
68226;BME280;55045;49.410;11.030;2022-08-11T11:06:30;98443.53;;;27.70;26.70
68226;BME280;55045;49.410;11.030;2022-08-11T11:09:39;98428.72;;;27.28;27.86
68226;BME280;55045;49.410;11.030;2022-08-11T11:12:50;98440.03;;;27.61;27.55
68226;BME280;55045;49.410;11.030;2022-08-11T11:16:12;98438.66;;;27.73;26.59
68226;BME280;55045;49.410;11.030;2022-08-11T11:19:42;98427.63;;;27.84;25.97
68226;BME280;55045;49.410;11.030;2022-08-11T11:22:48;98425.09;;;27.52;27.27
68226;BME280;55045;49.410;11.030;2022-08-11T11:26:32;98429.03;;;27.72;27.20
68226;BME280;55045;49.410;11.030;2022-08-11T11:29:50;98425.63;;;27.78;26.68
68226;BME280;55045;49.410;11.030;2022-08-11T11:33:03;98423.56;;;27.89;26.96
68226;BME280;55045;49.410;11.030;2022-08-11T11:36:14;98414.44;;;27.52;27.82
68226;BME280;55045;49.410;11.030;2022-08-11T11:39:25;98407.88;;;27.32;27.27
68226;BME280;55045;49.410;11.030;2022-08-11T11:42:29;98413.69;;;27.97;27.21
68226;BME280;55045;49.410;11.030;2022-08-11T11:45:34;98421.41;;;27.92;27.54
68226;BME280;55045;49.410;11.030;2022-08-11T11:48:39;98395.22;;;27.65;27.82
68226;BME280;55045;49.410;11.030;2022-08-11T11:51:45;98377.94;;;27.92;27.77
68226;BME280;55045;49.410;11.030;2022-08-11T11:54:55;98386.69;;;28.23;27.11
68226;BME280;55045;49.410;11.030;2022-08-11T11:58:00;98396.03;;;28.19;26.67
68226;BME280;55045;49.410;11.030;2022-08-11T12:01:24;98393.00;;;28.30;26.91
68226;BME280;55045;49.410;11.030;2022-08-11T12:04:29;98394.28;;;28.11;26.64
68226;BME280;55045;49.410;11.030;2022-08-11T12:07:35;98380.19;;;28.03;26.65
68226;BME280;55045;49.410;11.030;2022-08-11T12:11:14;98369.38;;;28.42;25.71
68226;BME280;55045;49.410;11.030;2022-08-11T12:14:36;98375.84;;;28.62;25.65
68226;BME280;55045;49.410;11.030;2022-08-11T12:17:41;98376.63;;;28.33;24.91
68226;BME280;55045;49.410;11.030;2022-08-11T12:20:44;98381.81;;;28.04;25.41
68226;BME280;55045;49.410;11.030;2022-08-11T12:23:49;98376.31;;;28.28;25.19
68226;BME280;55045;49.410;11.030;2022-08-11T12:27:10;98365.81;;;28.27;25.28
68226;BME280;55045;49.410;11.030;2022-08-11T12:30:27;98353.97;;;28.29;25.38
68226;BME280;55045;49.410;11.030;2022-08-11T12:33:32;98359.63;;;28.26;24.86
68226;BME280;55045;49.410;11.030;2022-08-11T12:36:42;98357.44;;;28.67;24.57
68226;BME280;55045;49.410;11.030;2022-08-11T12:39:50;98354.28;;;28.49;24.92
68226;BME280;55045;49.410;11.030;2022-08-11T12:43:33;98350.81;;;28.78;23.90
68226;BME280;55045;49.410;11.030;2022-08-11T12:46:58;98349.72;;;28.87;23.76
68226;BME280;55045;49.410;11.030;2022-08-11T12:50:06;98345.94;;;28.67;24.03
68226;BME280;55045;49.410;11.030;2022-08-11T12:53:29;98335.38;;;28.74;24.19
68226;BME280;55045;49.410;11.030;2022-08-11T12:56:37;98348.72;;;29.03;24.08
68226;BME280;55045;49.410;11.030;2022-08-11T13:00:00;98343.16;;;28.46;24.15
68226;BME280;55045;49.410;11.030;2022-08-11T13:03:22;98327.88;;;28.39;23.58
68226;BME280;55045;49.410;11.030;2022-08-11T13:06:45;98330.66;;;28.61;23.77
68226;BME280;55045;49.410;11.030;2022-08-11T13:09:49;98335.72;;;28.70;23.99
68226;BME280;55045;49.410;11.030;2022-08-11T13:12:53;98326.25;;;28.68;23.58
68226;BME280;55045;49.410;11.030;2022-08-11T13:15:57;98315.56;;;28.53;23.38
68226;BME280;55045;49.410;11.030;2022-08-11T13:19:01;98322.28;;;28.79;23.51
68226;BME280;55045;49.410;11.030;2022-08-11T13:22:06;98321.09;;;28.66;23.57
68226;BME280;55045;49.410;11.030;2022-08-11T13:25:11;98313.53;;;28.40;23.90
68226;BME280;55045;49.410;11.030;2022-08-11T13:28:18;98317.66;;;28.58;24.20
68226;BME280;55045;49.410;11.030;2022-08-11T13:31:22;98310.78;;;28.63;23.94
68226;BME280;55045;49.410;11.030;2022-08-11T13:34:27;98305.78;;;28.60;22.57
68226;BME280;55045;49.410;11.030;2022-08-11T13:37:33;98305.88;;;28.37;22.90
68226;BME280;55045;49.410;11.030;2022-08-11T13:40:57;98295.50;;;29.02;23.27
68226;BME280;55045;49.410;11.030;2022-08-11T13:44:21;98302.31;;;28.75;22.64
68226;BME280;55045;49.410;11.030;2022-08-11T13:47:47;98296.06;;;28.82;23.33
68226;BME280;55045;49.410;11.030;2022-08-11T13:50:51;98294.50;;;28.73;23.24
68226;BME280;55045;49.410;11.030;2022-08-11T13:54:15;98289.13;;;29.17;22.94
68226;BME280;55045;49.410;11.030;2022-08-11T13:57:20;98283.91;;;28.94;23.13
68226;BME280;55045;49.410;11.030;2022-08-11T14:00:48;98294.66;;;28.86;23.23
68226;BME280;55045;49.410;11.030;2022-08-11T14:03:54;98290.53;;;28.69;24.17
68226;BME280;55045;49.410;11.030;2022-08-11T14:07:23;98284.47;;;28.75;24.75
68226;BME280;55045;49.410;11.030;2022-08-11T14:10:29;98270.84;;;28.85;24.27
68226;BME280;55045;49.410;11.030;2022-08-11T14:13:36;98265.53;;;28.40;24.33
68226;BME280;55045;49.410;11.030;2022-08-11T14:16:44;98262.19;;;28.68;24.32
68226;BME280;55045;49.410;11.030;2022-08-11T14:19:50;98257.06;;;29.17;23.74
68226;BME280;55045;49.410;11.030;2022-08-11T14:22:56;98269.50;;;29.10;24.01
68226;BME280;55045;49.410;11.030;2022-08-11T14:26:00;98260.25;;;29.27;23.91
68226;BME280;55045;49.410;11.030;2022-08-11T14:29:24;98164.31;;;28.39;24.44
68226;BME280;55045;49.410;11.030;2022-08-11T14:32:28;98260.31;;;29.13;23.25
68226;BME280;55045;49.410;11.030;2022-08-11T14:35:33;98256.47;;;29.22;22.90
68226;BME280;55045;49.410;11.030;2022-08-11T14:38:37;98261.41;;;29.54;22.48
68226;BME280;55045;49.410;11.030;2022-08-11T14:41:49;98257.28;;;29.37;22.14
68226;BME280;55045;49.410;11.030;2022-08-11T14:45:15;98254.00;;;28.84;22.78
68226;BME280;55045;49.410;11.030;2022-08-11T14:48:58;98254.81;;;28.70;23.56
68226;BME280;55045;49.410;11.030;2022-08-11T14:52:06;98241.59;;;28.62;24.44
68226;BME280;55045;49.410;11.030;2022-08-11T14:55:11;98247.09;;;28.75;24.47
68226;BME280;55045;49.410;11.030;2022-08-11T14:58:33;98244.81;;;28.57;24.22
68226;BME280;55045;49.410;11.030;2022-08-11T15:01:38;98245.91;;;28.92;24.45
68226;BME280;55045;49.410;11.030;2022-08-11T15:05:03;98235.59;;;28.60;25.22
68226;BME280;55045;49.410;11.030;2022-08-11T15:08:08;98235.50;;;28.68;24.50
68226;BME280;55045;49.410;11.030;2022-08-11T15:11:13;98237.66;;;29.09;24.08
68226;BME280;55045;49.410;11.030;2022-08-11T15:14:32;98243.84;;;28.80;22.89
68226;BME280;55045;49.410;11.030;2022-08-11T15:17:59;98229.69;;;28.79;23.14
68226;BME280;55045;49.410;11.030;2022-08-11T15:21:05;98226.28;;;28.85;23.10
68226;BME280;55045;49.410;11.030;2022-08-11T15:24:40;98228.09;;;29.00;23.57
68226;BME280;55045;49.410;11.030;2022-08-11T15:27:46;98229.22;;;28.90;23.71
68226;BME280;55045;49.410;11.030;2022-08-11T15:34:34;98219.16;;;28.42;24.85
68226;BME280;55045;49.410;11.030;2022-08-11T15:37:57;98203.69;;;28.37;25.19
68226;BME280;55045;49.410;11.030;2022-08-11T15:41:05;98219.50;;;28.38;25.25
68226;BME280;55045;49.410;11.030;2022-08-11T15:44:29;98217.28;;;28.27;25.07
68226;BME280;55045;49.410;11.030;2022-08-11T15:48:09;98213.34;;;28.38;24.98
68226;BME280;55045;49.410;11.030;2022-08-11T15:51:16;98208.00;;;28.38;24.71
68226;BME280;55045;49.410;11.030;2022-08-11T15:54:28;98205.91;;;28.63;24.66
68226;BME280;55045;49.410;11.030;2022-08-11T15:57:34;98209.03;;;28.52;24.96
68226;BME280;55045;49.410;11.030;2022-08-11T16:00:56;98197.59;;;28.58;25.01
68226;BME280;55045;49.410;11.030;2022-08-11T16:04:20;98193.84;;;28.52;24.90
68226;BME280;55045;49.410;11.030;2022-08-11T16:07:30;98195.94;;;28.57;24.50
68226;BME280;55045;49.410;11.030;2022-08-11T16:10:42;98190.56;;;28.35;24.51
68226;BME280;55045;49.410;11.030;2022-08-11T16:13:47;98185.59;;;28.32;24.93
68226;BME280;55045;49.410;11.030;2022-08-11T16:17:25;98186.78;;;28.45;25.32
68226;BME280;55045;49.410;11.030;2022-08-11T16:20:30;98183.53;;;28.20;25.19
68226;BME280;55045;49.410;11.030;2022-08-11T16:23:36;98167.50;;;28.20;25.68
68226;BME280;55045;49.410;11.030;2022-08-11T16:26:42;98185.34;;;28.19;25.47
68226;BME280;55045;49.410;11.030;2022-08-11T16:30:07;98167.53;;;28.05;25.25
68226;BME280;55045;49.410;11.030;2022-08-11T16:33:11;98178.75;;;28.15;25.30
68226;BME280;55045;49.410;11.030;2022-08-11T16:36:35;98175.91;;;28.02;25.05
68226;BME280;55045;49.410;11.030;2022-08-11T16:39:57;98168.81;;;27.94;25.77
68226;BME280;55045;49.410;11.030;2022-08-11T16:43:02;98167.72;;;28.03;25.99
68226;BME280;55045;49.410;11.030;2022-08-11T16:46:25;98162.75;;;28.00;25.77
68226;BME280;55045;49.410;11.030;2022-08-11T16:49:49;98160.81;;;27.94;25.95
68226;BME280;55045;49.410;11.030;2022-08-11T16:52:54;98157.78;;;27.82;26.43
68226;BME280;55045;49.410;11.030;2022-08-11T16:56:02;98156.41;;;27.87;27.08
68226;BME280;55045;49.410;11.030;2022-08-11T16:59:08;98161.97;;;27.77;27.17
68226;BME280;55045;49.410;11.030;2022-08-11T17:02:18;98151.81;;;27.80;26.85
68226;BME280;55045;49.410;11.030;2022-08-11T17:05:42;98160.09;;;27.63;27.07
68226;BME280;55045;49.410;11.030;2022-08-11T17:09:25;98163.56;;;27.71;27.36
68226;BME280;55045;49.410;11.030;2022-08-11T17:13:08;98165.91;;;27.66;27.52
68226;BME280;55045;49.410;11.030;2022-08-11T17:16:16;98164.91;;;27.67;27.56
68226;BME280;55045;49.410;11.030;2022-08-11T17:19:25;98159.66;;;27.59;27.68
68226;BME280;55045;49.410;11.030;2022-08-11T17:22:52;98163.84;;;27.53;27.39
68226;BME280;55045;49.410;11.030;2022-08-11T17:26:20;98151.94;;;27.64;27.69
68226;BME280;55045;49.410;11.030;2022-08-11T17:29:29;98159.06;;;27.49;28.22
68226;BME280;55045;49.410;11.030;2022-08-11T17:32:36;98160.88;;;27.48;28.17
68226;BME280;55045;49.410;11.030;2022-08-11T17:36:02;98148.19;;;27.36;28.63
68226;BME280;55045;49.410;11.030;2022-08-11T17:39:06;98152.94;;;27.25;28.61
68226;BME280;55045;49.410;11.030;2022-08-11T17:42:11;98156.59;;;27.24;28.88
68226;BME280;55045;49.410;11.030;2022-08-11T17:45:46;98156.97;;;27.21;28.33
68226;BME280;55045;49.410;11.030;2022-08-11T17:49:29;98154.34;;;27.13;28.59
68226;BME280;55045;49.410;11.030;2022-08-11T17:52:40;98152.88;;;27.11;28.79